createdAt,value
2018-04-04T00:00:49.443Z,1.47
2018-04-04T00:03:15.606Z,1.57
2018-04-04T00:05:41.768Z,1.40
2018-04-04T00:08:07.955Z,2.10
2018-04-04T00:10:34.102Z,1.53
2018-04-04T00:13:01.008Z,1.70
2018-04-04T00:15:27.172Z,1.83
2018-04-04T00:17:53.319Z,1.80
2018-04-04T00:20:19.488Z,1.63
2018-04-04T00:22:46.362Z,1.77
2018-04-04T00:25:12.549Z,1.57
2018-04-04T00:27:38.697Z,1.60
2018-04-04T00:30:05.604Z,1.43
2018-04-04T00:32:31.760Z,1.90
2018-04-04T00:34:57.904Z,2.30
2018-04-04T00:37:24.817Z,1.93
2018-04-04T00:39:50.964Z,1.40
2018-04-04T00:42:17.114Z,2.40
2018-04-04T00:44:44.036Z,1.70
2018-04-04T00:47:10.185Z,1.80
2018-04-04T00:49:36.340Z,1.37
2018-04-04T00:52:03.284Z,1.93
2018-04-04T00:54:30.206Z,1.77
2018-04-04T00:56:56.355Z,1.67
2018-04-04T00:59:23.259Z,1.70
2018-04-04T01:01:49.414Z,1.70
2018-04-04T01:04:15.572Z,1.60
2018-04-04T01:06:42.481Z,1.90
2018-04-04T01:09:08.648Z,1.70
2018-04-04T01:11:34.811Z,1.47
2018-04-04T01:14:01.887Z,1.90
2018-04-04T01:16:28.044Z,1.70
2018-04-04T01:18:54.220Z,2.77
2018-04-04T01:21:21.127Z,2.03
2018-04-04T01:23:47.302Z,1.80
2018-04-04T01:26:20.587Z,1.80
2018-04-04T01:28:46.733Z,2.23
2018-04-04T01:31:13.635Z,1.37
2018-04-04T01:33:39.792Z,1.83
2018-04-04T01:36:05.980Z,1.80
2018-04-04T01:38:32.128Z,1.53
2018-04-04T01:40:58.299Z,1.50
2018-04-04T01:43:25.414Z,1.83
2018-04-04T01:48:15.515Z,1.57
2018-04-04T01:50:41.736Z,1.90
2018-04-04T01:53:07.903Z,2.03
2018-04-04T01:55:34.121Z,2.00
2018-04-04T01:58:00.286Z,2.67
2018-04-04T02:00:26.447Z,2.30
2018-04-04T02:02:53.380Z,2.90
2018-04-04T02:05:19.552Z,3.30
2018-04-04T02:07:45.845Z,3.30
2018-04-04T02:10:12.774Z,3.37
2018-04-04T02:12:39.072Z,3.30
2018-04-04T02:15:05.220Z,2.57
2018-04-04T02:17:31.400Z,2.03
2018-04-04T02:19:58.372Z,2.67
2018-04-04T02:22:24.487Z,2.10
2018-04-04T02:24:50.661Z,2.30
2018-04-04T02:27:16.817Z,2.07
2018-04-04T02:29:42.964Z,1.80
2018-04-04T02:32:09.143Z,1.87
2018-04-04T02:34:36.036Z,2.30
2018-04-04T02:37:02.232Z,2.33
2018-04-04T02:39:28.383Z,2.20
2018-04-04T02:41:55.255Z,2.50
2018-04-04T02:44:21.423Z,2.67
2018-04-04T02:46:47.576Z,2.30
2018-04-04T02:49:13.795Z,2.40
2018-04-04T02:51:40.700Z,1.83
2018-04-04T02:54:06.848Z,2.53
2018-04-04T02:56:32.993Z,1.83
2018-04-04T02:58:59.171Z,2.60
2018-04-04T03:01:25.362Z,2.43
2018-04-04T03:03:51.564Z,2.77
2018-04-04T03:06:17.726Z,2.90
2018-04-04T03:08:43.879Z,2.20
2018-04-04T03:11:10.063Z,2.50
2018-04-04T03:13:36.213Z,2.67
2018-04-04T03:16:02.366Z,2.60
2018-04-04T03:18:28.523Z,2.37
2018-04-04T03:20:55.408Z,3.43
2018-04-04T03:23:21.564Z,2.97
2018-04-04T03:25:47.707Z,2.60
2018-04-04T03:28:13.859Z,2.83
2018-04-04T03:30:40.760Z,3.10
2018-04-04T03:33:06.923Z,3.20
2018-04-04T03:35:33.845Z,3.13
2018-04-04T03:37:59.996Z,3.90
2018-04-04T03:40:26.908Z,3.90
2018-04-04T03:42:53.059Z,3.50
2018-04-04T03:45:19.203Z,3.97
2018-04-04T03:47:45.440Z,3.37
2018-04-04T03:50:11.641Z,4.27
2018-04-04T03:52:37.816Z,3.50
2018-04-04T03:55:03.965Z,4.10
2018-04-04T03:57:30.872Z,3.33
2018-04-04T03:59:57.203Z,3.43
2018-04-04T04:02:23.357Z,3.40
2018-04-04T04:04:49.514Z,3.70
2018-04-04T04:07:16.432Z,3.30
2018-04-04T04:09:42.579Z,3.63
2018-04-04T04:12:08.727Z,4.07
2018-04-04T04:14:34.944Z,3.33
2018-04-04T04:17:01.111Z,3.43
2018-04-04T04:19:28.016Z,2.80
2018-04-04T04:21:54.179Z,1.90
2018-04-04T04:24:20.361Z,2.10
2018-04-04T04:26:46.549Z,1.10
2018-04-04T04:29:13.445Z,1.17
2018-04-04T04:31:39.588Z,0.63
2018-04-04T04:34:06.480Z,0.80
2018-04-04T04:36:32.672Z,1.10
2018-04-04T04:38:58.824Z,1.20
2018-04-04T04:41:24.991Z,1.27
2018-04-04T04:43:51.904Z,1.20
2018-04-04T04:46:18.065Z,0.80
2018-04-04T04:48:44.229Z,1.57
2018-04-04T04:51:10.627Z,1.50
2018-04-04T04:53:37.543Z,1.17
2018-04-04T04:56:04.433Z,1.27
2018-04-04T04:58:31.484Z,1.40
2018-04-04T05:00:58.452Z,1.83
2018-04-04T05:03:25.326Z,1.40
2018-04-04T05:05:51.581Z,0.93
2018-04-04T05:08:17.795Z,1.13
2018-04-04T05:10:43.947Z,1.27
2018-04-04T05:13:10.088Z,1.13
2018-04-04T05:15:36.243Z,0.97
2018-04-04T05:18:02.431Z,1.00
2018-04-04T05:20:28.574Z,1.00
2018-04-04T05:22:54.738Z,1.10
2018-04-04T05:25:20.892Z,1.10
2018-04-04T05:27:47.804Z,1.20
2018-04-04T05:30:13.980Z,1.63
2018-04-04T05:32:40.860Z,1.13
2018-04-04T05:35:07.038Z,1.57
2018-04-04T05:37:33.208Z,1.13
2018-04-04T05:39:59.511Z,1.37
2018-04-04T05:42:26.432Z,1.73
2018-04-04T05:44:53.385Z,1.60
2018-04-04T05:47:19.558Z,1.43
2018-04-04T05:49:45.704Z,1.03
2018-04-04T05:52:12.644Z,1.07
2018-04-04T05:54:39.603Z,1.57
2018-04-04T05:57:05.801Z,2.50
2018-04-04T05:59:31.972Z,1.53
2018-04-04T06:01:58.886Z,1.27
2018-04-04T06:04:25.049Z,1.20
2018-04-04T06:06:52.024Z,1.40
2018-04-04T06:09:18.196Z,1.20
2018-04-04T06:11:44.347Z,1.33
2018-04-04T06:14:11.272Z,1.63
2018-04-04T06:16:38.207Z,1.90
2018-04-04T06:19:04.355Z,1.43
2018-04-04T06:21:30.544Z,1.33
2018-04-04T06:23:56.729Z,1.40
2018-04-04T06:26:23.661Z,1.60
2018-04-04T06:28:49.920Z,1.47
2018-04-04T06:31:16.076Z,1.47
2018-04-04T06:33:42.968Z,1.50
2018-04-04T06:36:09.148Z,1.67
2018-04-04T06:38:35.296Z,1.30
2018-04-04T06:41:02.206Z,1.20
2018-04-04T06:43:28.415Z,1.80
2018-04-04T06:45:54.568Z,1.57
2018-04-04T06:48:20.732Z,1.37
2018-04-04T06:50:47.636Z,1.50
2018-04-04T06:53:13.822Z,1.80
2018-04-04T06:55:40.743Z,1.73
2018-04-04T06:58:06.937Z,1.53
2018-04-04T07:00:33.087Z,1.53
2018-04-04T07:02:59.264Z,1.27
2018-04-04T07:05:26.172Z,1.67
2018-04-04T07:07:52.477Z,1.70
2018-04-04T07:10:19.385Z,2.10
2018-04-04T07:12:45.538Z,1.60
2018-04-04T07:15:11.704Z,1.50
2018-04-04T07:17:37.859Z,2.10
2018-04-04T07:20:04.014Z,1.57
2018-04-04T07:22:30.216Z,1.77
2018-04-04T07:24:56.366Z,2.03
2018-04-04T07:27:22.533Z,1.50
2018-04-04T07:29:48.682Z,1.20
2018-04-04T07:32:15.567Z,1.20
2018-04-04T07:34:41.730Z,1.30
2018-04-04T07:37:07.931Z,1.50
2018-04-04T07:39:34.099Z,1.57
2018-04-04T07:42:00.280Z,1.30
2018-04-04T07:44:26.432Z,1.30
2018-04-04T07:46:52.610Z,1.30
2018-04-04T07:49:18.792Z,1.23
2018-04-04T07:51:44.952Z,1.33
2018-04-04T07:54:11.124Z,1.37
2018-04-04T07:56:38.051Z,1.77
2018-04-04T07:59:04.184Z,1.50
2018-04-04T08:01:30.346Z,1.57
2018-04-04T08:03:56.632Z,1.20
2018-04-04T08:06:22.794Z,1.33
2018-04-04T08:08:48.943Z,1.63
2018-04-04T08:11:15.872Z,1.50
2018-04-04T08:13:43.515Z,1.40
2018-04-04T08:16:09.692Z,1.43
2018-04-04T08:18:36.599Z,1.87
2018-04-04T08:21:02.759Z,2.00
2018-04-04T08:23:28.920Z,2.00
2018-04-04T08:25:55.819Z,2.30
2018-04-04T08:28:21.989Z,2.70
2018-04-04T08:30:48.142Z,3.17
2018-04-04T08:33:14.291Z,2.83
2018-04-04T08:35:40.459Z,2.40
2018-04-04T08:38:06.628Z,1.67
2018-04-04T08:40:33.531Z,2.10
2018-04-04T08:42:59.683Z,1.60
2018-04-04T08:45:26.640Z,1.67
2018-04-04T08:47:52.823Z,1.50
2018-04-04T08:50:18.955Z,1.50
2018-04-04T08:52:45.133Z,1.90
2018-04-04T08:55:11.346Z,1.80
2018-04-04T08:57:37.525Z,1.33
2018-04-04T09:00:04.443Z,1.00
2018-04-04T09:02:32.104Z,1.60
2018-04-04T09:04:58.357Z,1.53
2018-04-04T09:07:24.507Z,2.17
2018-04-04T09:09:50.651Z,1.00
2018-04-04T09:12:17.603Z,1.57
2018-04-04T09:14:43.724Z,1.40
2018-04-04T09:17:09.903Z,1.20
2018-04-04T09:19:36.056Z,1.27
2018-04-04T09:22:02.236Z,1.67
2018-04-04T09:24:28.418Z,1.57
2018-04-04T09:26:54.607Z,1.37
2018-04-04T09:29:21.492Z,1.57
2018-04-04T09:31:47.659Z,1.23
2018-04-04T09:34:13.829Z,1.83
2018-04-04T09:36:40.013Z,1.60
2018-04-04T09:39:06.358Z,1.37
2018-04-04T09:41:32.525Z,1.20
2018-04-04T09:43:59.471Z,1.53
2018-04-04T09:46:25.636Z,1.40
2018-04-04T09:48:51.805Z,1.80
2018-04-04T09:51:17.960Z,1.33
2018-04-04T09:53:44.872Z,2.37
2018-04-04T09:56:11.133Z,2.10
2018-04-04T09:58:37.323Z,1.90
2018-04-04T10:01:10.450Z,2.13
2018-04-04T10:03:37.391Z,2.03
2018-04-04T10:06:04.369Z,1.57
2018-04-04T10:08:30.567Z,1.60
2018-04-04T10:10:56.757Z,1.80
2018-04-04T10:13:23.707Z,1.93
2018-04-04T10:15:49.875Z,1.90
2018-04-04T10:18:16.008Z,1.70
2018-04-04T10:20:42.160Z,2.30
2018-04-04T10:23:08.340Z,1.53
2018-04-04T10:25:35.238Z,2.10
2018-04-04T10:28:01.418Z,1.80
2018-04-04T10:30:27.580Z,1.67
2018-04-04T10:32:53.735Z,1.90
2018-04-04T10:35:19.891Z,1.63
2018-04-04T10:37:46.052Z,2.00
2018-04-04T10:40:12.259Z,1.60
2018-04-04T10:42:38.460Z,1.90
2018-04-04T10:45:04.688Z,1.70
2018-04-04T10:47:30.836Z,2.03
2018-04-04T10:49:56.985Z,2.03
2018-04-04T10:52:23.139Z,1.83
2018-04-04T10:54:50.123Z,2.53
2018-04-04T10:57:16.323Z,1.90
2018-04-04T10:59:43.248Z,1.70
2018-04-04T11:02:10.159Z,2.30
2018-04-04T11:04:36.392Z,1.60
2018-04-04T11:07:02.584Z,1.70
2018-04-04T11:09:28.718Z,2.17
2018-04-04T11:11:55.615Z,1.40
2018-04-04T11:14:21.776Z,1.30
2018-04-04T11:16:47.956Z,1.30
2018-04-04T11:19:14.104Z,1.50
2018-04-04T11:21:40.293Z,1.57
2018-04-04T11:24:06.439Z,1.70
2018-04-04T11:26:33.360Z,2.07
2018-04-04T11:28:59.552Z,1.60
2018-04-04T11:31:25.729Z,1.50
2018-04-04T11:33:52.668Z,1.43
2018-04-04T11:36:18.851Z,1.40
2018-04-04T11:38:45.059Z,1.20
2018-04-04T11:41:11.215Z,1.37
2018-04-04T11:43:38.143Z,1.50
2018-04-04T11:46:04.348Z,1.30
2018-04-04T11:48:30.496Z,1.33
2018-04-04T11:50:56.692Z,1.73
2018-04-04T11:53:22.839Z,1.77
2018-04-04T11:55:49.019Z,1.60
2018-04-04T11:58:15.200Z,1.60
2018-04-04T12:00:41.385Z,2.00
2018-04-04T12:03:08.317Z,1.77
2018-04-04T12:05:34.455Z,2.00
2018-04-04T12:08:00.616Z,1.83
2018-04-04T12:10:27.511Z,1.70
2018-04-04T12:12:53.668Z,1.77
2018-04-04T12:15:21.376Z,1.80
2018-04-04T12:17:48.260Z,2.10
2018-04-04T12:20:14.415Z,1.77
2018-04-04T12:22:40.615Z,1.70
2018-04-04T12:25:06.760Z,1.73
2018-04-04T12:27:32.959Z,1.90
2018-04-04T12:29:59.113Z,2.00
2018-04-04T12:32:25.271Z,1.80
2018-04-04T12:34:51.457Z,1.70
2018-04-04T12:37:17.614Z,1.50
2018-04-04T12:39:43.776Z,1.57
2018-04-04T12:42:09.926Z,1.10
2018-04-04T12:44:36.072Z,1.37
2018-04-04T12:47:03.020Z,1.80
2018-04-04T12:49:29.915Z,1.90
2018-04-04T12:51:56.150Z,1.20
2018-04-04T12:54:22.296Z,0.97
2018-04-04T12:56:48.481Z,1.40
2018-04-04T12:59:14.660Z,1.60
2018-04-04T13:01:40.828Z,1.20
2018-04-04T13:04:07.760Z,1.30
2018-04-04T13:06:33.927Z,1.63
2018-04-04T13:09:00.132Z,1.43
2018-04-04T13:11:26.319Z,1.07
2018-04-04T13:13:52.551Z,1.37
2018-04-04T13:16:31.175Z,1.43
2018-04-04T13:18:57.341Z,1.57
2018-04-04T13:21:23.523Z,1.57
2018-04-04T13:23:49.719Z,1.63
2018-04-04T13:26:15.880Z,1.83
2018-04-04T13:28:42.776Z,1.63
2018-04-04T13:31:08.951Z,1.40
2018-04-04T13:33:35.851Z,1.37
2018-04-04T13:36:01.997Z,1.43
2018-04-04T13:38:28.160Z,1.10
2018-04-04T13:40:54.319Z,1.50
2018-04-04T13:43:20.492Z,1.93
2018-04-04T13:45:46.663Z,1.77
2018-04-04T13:48:13.585Z,1.50
2018-04-04T13:50:39.745Z,1.27
2018-04-04T13:53:06.663Z,1.20
2018-04-04T13:55:32.811Z,1.07
2018-04-04T13:57:58.951Z,1.07
2018-04-04T14:00:25.108Z,1.13
2018-04-04T14:02:51.320Z,1.03
2018-04-04T14:05:17.524Z,0.93
2018-04-04T14:07:43.688Z,1.20
2018-04-04T14:10:10.611Z,1.47
2018-04-04T14:12:36.774Z,2.10
2018-04-04T14:15:10.535Z,2.67
2018-04-04T14:17:36.708Z,1.30
2018-04-04T14:20:02.885Z,1.43
2018-04-04T14:22:29.123Z,1.70
2018-04-04T14:24:55.286Z,1.87
2018-04-04T14:27:21.464Z,1.90
2018-04-04T14:29:47.633Z,1.57
2018-04-04T14:32:13.780Z,1.80
2018-04-04T14:34:39.996Z,2.13
2018-04-04T14:37:06.166Z,1.73
2018-04-04T14:39:32.327Z,1.93
2018-04-04T14:41:58.513Z,1.80
2018-04-04T14:44:24.697Z,1.60
2018-04-04T14:46:51.589Z,1.70
2018-04-04T14:49:17.752Z,2.10
2018-04-04T14:51:43.913Z,1.90
2018-04-04T14:54:10.809Z,2.30
2018-04-04T14:56:36.984Z,2.40
2018-04-04T14:59:03.151Z,1.93
2018-04-04T15:01:29.500Z,1.87
2018-04-04T15:03:55.694Z,1.80
2018-04-04T15:06:21.919Z,2.83
2018-04-04T15:08:48.853Z,2.50
2018-04-04T15:11:15.004Z,1.93
2018-04-04T15:13:41.927Z,1.50
2018-04-04T15:16:08.100Z,1.70
2018-04-04T15:18:34.984Z,1.47
2018-04-04T15:21:01.140Z,1.70
2018-04-04T15:23:27.318Z,2.17
2018-04-04T15:25:53.484Z,1.70
2018-04-04T15:28:19.679Z,1.93
2018-04-04T15:30:46.583Z,1.97
2018-04-04T15:33:12.744Z,2.10
2018-04-04T15:35:39.662Z,1.90
2018-04-04T15:38:05.847Z,1.83
2018-04-04T15:40:32.019Z,2.00
2018-04-04T15:42:58.208Z,1.93
2018-04-04T15:45:25.178Z,2.50
2018-04-04T15:47:51.364Z,4.50
2018-04-04T15:50:17.524Z,9.10
2018-04-04T15:52:43.673Z,9.80
2018-04-04T15:55:09.860Z,4.33
2018-04-04T15:57:36.058Z,3.03
2018-04-04T16:00:02.244Z,2.20
2018-04-04T16:02:28.403Z,2.40
2018-04-04T16:04:54.583Z,2.20
2018-04-04T16:07:20.752Z,1.77
2018-04-04T16:09:46.916Z,3.10
2018-04-04T16:12:13.288Z,2.80
2018-04-04T16:14:39.439Z,3.00
2018-04-04T16:17:05.592Z,2.80
2018-04-04T16:19:32.492Z,2.40
2018-04-04T16:21:58.656Z,2.80
2018-04-04T16:24:24.838Z,2.80
2018-04-04T16:26:50.983Z,3.30
2018-04-04T16:29:17.172Z,2.57
2018-04-04T16:31:44.067Z,3.30
2018-04-04T16:34:10.229Z,3.10
2018-04-04T16:36:36.376Z,2.87
2018-04-04T16:39:02.527Z,3.53
2018-04-04T16:41:28.704Z,3.20
2018-04-04T16:43:54.908Z,2.70
2018-04-04T16:46:21.100Z,3.47
2018-04-04T16:48:48.751Z,3.20
2018-04-04T16:51:14.911Z,4.23
2018-04-04T16:53:41.101Z,5.10
2018-04-04T16:56:07.283Z,3.60
2018-04-04T16:58:34.246Z,3.37
2018-04-04T17:01:00.457Z,10.30
2018-04-04T17:03:26.629Z,6.17
2018-04-04T17:05:52.786Z,3.90
2018-04-04T17:08:18.971Z,3.67
2018-04-04T17:10:45.884Z,4.67
2018-04-04T17:13:12.085Z,3.50
2018-04-04T17:15:38.256Z,4.33
2018-04-04T17:18:04.465Z,4.80
2018-04-04T17:20:30.624Z,8.03
2018-04-04T17:22:56.823Z,5.80
2018-04-04T17:25:22.976Z,5.30
2018-04-04T17:27:49.152Z,5.27
2018-04-04T17:30:16.082Z,5.57
2018-04-04T17:32:42.299Z,6.00
2018-04-04T17:35:08.523Z,6.47
2018-04-04T17:37:34.683Z,6.40
2018-04-04T17:40:01.608Z,5.73
2018-04-04T17:42:27.788Z,6.10
2018-04-04T17:44:54.692Z,7.20
2018-04-04T17:47:20.844Z,6.63
2018-04-04T17:49:47.045Z,5.80
2018-04-04T17:52:13.200Z,6.27
2018-04-04T17:54:39.388Z,6.23
2018-04-04T17:57:05.592Z,6.30
2018-04-04T17:59:31.803Z,6.83
2018-04-04T18:01:57.967Z,7.17
2018-04-04T18:04:24.871Z,6.27
2018-04-04T18:06:51.040Z,7.37
2018-04-04T18:09:18.085Z,6.87
2018-04-04T18:11:44.280Z,7.47
2018-04-04T18:14:10.462Z,6.20
2018-04-04T18:16:36.622Z,6.83
2018-04-04T18:19:02.828Z,9.33
2018-04-04T18:21:29.020Z,8.23
2018-04-04T18:23:55.229Z,7.80
2018-04-04T18:26:21.410Z,7.40
2018-04-04T18:28:54.495Z,6.97
2018-04-04T18:31:20.676Z,8.03
2018-04-04T18:33:47.579Z,8.47
2018-04-04T18:36:13.734Z,8.47
2018-04-04T18:38:39.885Z,8.10
2018-04-04T18:41:06.775Z,8.73
2018-04-04T18:43:32.920Z,8.10
2018-04-04T18:45:59.059Z,8.53
2018-04-04T18:48:25.223Z,9.07
2018-04-04T18:50:51.390Z,9.60
2018-04-04T18:53:17.534Z,10.73
2018-04-04T18:55:43.706Z,8.70
2018-04-04T18:58:12.462Z,10.23
2018-04-04T19:00:39.814Z,8.63
2018-04-04T19:03:06.007Z,8.77
2018-04-04T19:05:32.178Z,9.50
2018-04-04T19:07:58.348Z,8.57
2018-04-04T19:10:24.533Z,10.73
2018-04-04T19:12:51.447Z,10.60
2018-04-04T19:15:19.120Z,10.50
2018-04-04T19:17:45.304Z,10.60
2018-04-04T19:20:11.492Z,10.87
2018-04-04T19:22:38.419Z,9.60
2018-04-04T19:25:05.353Z,10.20
2018-04-04T19:27:31.587Z,11.77
2018-04-04T19:29:57.764Z,11.07
2018-04-04T19:32:24.663Z,10.40
2018-04-04T19:34:50.847Z,10.80
2018-04-04T19:37:17.730Z,10.47
2018-04-04T19:39:43.873Z,11.07
2018-04-04T19:42:10.063Z,11.90
2018-04-04T19:44:36.231Z,10.97
2018-04-04T19:47:02.410Z,11.80
2018-04-04T19:49:28.570Z,11.60
2018-04-04T19:51:55.484Z,13.20
2018-04-04T19:54:21.656Z,11.57
2018-04-04T19:56:47.862Z,12.43
2018-04-04T19:59:14.062Z,11.37
2018-04-04T20:01:40.239Z,12.07
2018-04-04T20:04:06.428Z,13.10
2018-04-04T20:06:32.575Z,13.90
2018-04-04T20:08:58.744Z,14.30
2018-04-04T20:11:30.078Z,14.67
2018-04-04T20:13:57.932Z,14.47
2018-04-04T20:16:24.123Z,15.13
2018-04-04T20:18:50.330Z,14.40
2018-04-04T20:21:16.484Z,16.13
2018-04-04T20:23:43.389Z,14.33
2018-04-04T20:26:09.564Z,15.83
2018-04-04T20:28:36.480Z,14.87
2018-04-04T20:31:02.661Z,14.50
2018-04-04T20:33:28.852Z,14.50
2018-04-04T20:35:55.791Z,14.60
2018-04-04T20:38:21.939Z,14.10
2018-04-04T20:40:48.824Z,15.40
2018-04-04T20:43:14.987Z,13.73
2018-04-04T20:45:41.146Z,13.97
2018-04-04T20:48:07.335Z,13.50
2018-04-04T20:50:33.507Z,12.77
2018-04-04T20:52:59.659Z,11.90
2018-04-04T20:55:26.591Z,11.87
2018-04-04T20:57:52.732Z,10.77
2018-04-04T21:00:18.913Z,10.83
2018-04-04T21:02:45.214Z,10.90
2018-04-04T21:05:12.012Z,10.00
2018-04-04T21:07:38.153Z,10.60
2018-04-04T21:10:04.344Z,10.93
2018-04-04T21:12:31.261Z,9.90
2018-04-04T21:14:57.451Z,10.17
2018-04-04T21:17:23.613Z,10.00
2018-04-04T21:19:49.787Z,11.03
2018-04-04T21:22:16.715Z,10.37
2018-04-04T21:24:42.886Z,10.87
2018-04-04T21:27:09.029Z,10.10
2018-04-04T21:29:35.192Z,11.47
2018-04-04T21:32:01.419Z,12.10
2018-04-04T21:34:28.283Z,11.80
2018-04-04T21:36:54.435Z,11.77
2018-04-04T21:39:21.391Z,12.27
2018-04-04T21:41:48.299Z,13.23
2018-04-04T21:44:14.451Z,12.77
2018-04-04T21:46:40.702Z,12.20
2018-04-04T21:49:06.868Z,12.93
2018-04-04T21:51:33.030Z,11.90
2018-04-04T21:53:59.203Z,13.90
2018-04-04T21:56:26.111Z,13.10
2018-04-04T21:58:52.266Z,13.60
2018-04-04T22:01:18.461Z,13.40
2018-04-04T22:03:44.664Z,13.27
2018-04-04T22:06:11.583Z,13.97
2018-04-04T22:08:37.792Z,11.60
2018-04-04T22:11:04.696Z,11.50
2018-04-04T22:13:31.589Z,12.60
2018-04-04T22:15:57.760Z,10.70
2018-04-04T22:18:23.903Z,12.40
2018-04-04T22:20:50.898Z,13.00
2018-04-04T22:23:17.751Z,13.37
2018-04-04T22:25:43.931Z,12.67
2018-04-04T22:28:10.093Z,11.97
2018-04-04T22:30:37.028Z,12.40
2018-04-04T22:33:03.919Z,9.70
2018-04-04T22:35:30.109Z,10.10
2018-04-04T22:37:56.243Z,9.23
2018-04-04T22:40:23.143Z,9.23
2018-04-04T22:42:49.308Z,8.20
2018-04-04T22:45:15.468Z,9.10
2018-04-04T22:47:41.685Z,9.37
2018-04-04T22:50:07.850Z,9.10
2018-04-04T22:52:34.061Z,8.53
2018-04-04T22:55:00.984Z,8.13
2018-04-04T22:57:27.179Z,8.60
2018-04-04T22:59:53.415Z,7.90
2018-04-04T23:02:19.567Z,8.40
2018-04-04T23:04:45.873Z,7.50
2018-04-04T23:07:12.041Z,7.93
2018-04-04T23:09:38.199Z,7.80
2018-04-04T23:12:05.115Z,9.00
2018-04-04T23:14:31.284Z,8.00
2018-04-04T23:16:57.446Z,8.47
2018-04-04T23:19:24.364Z,8.13
2018-04-04T23:21:50.527Z,9.00
2018-04-04T23:24:16.764Z,10.20
2018-04-04T23:26:43.694Z,9.77
2018-04-04T23:29:10.620Z,9.17
2018-04-04T23:31:37.555Z,8.57
2018-04-04T23:34:03.723Z,9.20
2018-04-04T23:36:29.866Z,8.80
2018-04-04T23:38:56.743Z,9.30
2018-04-04T23:41:22.952Z,9.00
2018-04-04T23:43:49.136Z,9.50
2018-04-04T23:46:15.302Z,11.50
2018-04-04T23:48:41.499Z,10.60
2018-04-04T23:51:07.696Z,10.03
2018-04-04T23:53:34.596Z,10.87
2018-04-04T23:56:00.741Z,10.30
2018-04-04T23:58:28.401Z,10.20
